createdAt,value
2017-10-30T00:00:59.428Z,4.59
2017-10-30T00:03:29.344Z,4.37
2017-10-30T00:05:59.190Z,4.46
2017-10-30T00:08:29.091Z,4.71
2017-10-30T00:10:58.718Z,4.65
2017-10-30T00:13:29.541Z,4.67
2017-10-30T00:15:59.378Z,4.55
2017-10-30T00:18:29.360Z,4.50
2017-10-30T00:20:59.115Z,4.34
2017-10-30T00:23:28.918Z,4.17
2017-10-30T00:25:58.793Z,4.16
2017-10-30T00:28:34.704Z,4.10
2017-10-30T00:31:05.338Z,4.10
2017-10-30T00:33:36.007Z,4.26
2017-10-30T00:36:05.864Z,4.43
2017-10-30T00:38:36.024Z,4.46
2017-10-30T00:41:05.904Z,4.41
2017-10-30T00:43:35.761Z,4.61
2017-10-30T00:46:05.761Z,4.55
2017-10-30T00:48:35.646Z,4.57
2017-10-30T00:51:05.438Z,4.54
2017-10-30T00:53:35.308Z,4.41
2017-10-30T00:56:06.257Z,4.28
2017-10-30T00:58:36.041Z,4.08
2017-10-30T01:01:05.941Z,4.02
2017-10-30T01:03:35.753Z,3.93
2017-10-30T01:06:05.440Z,3.98
2017-10-30T01:08:35.071Z,3.89
2017-10-30T01:11:04.920Z,4.01
2017-10-30T01:13:34.765Z,4.01
2017-10-30T01:16:05.121Z,4.20
2017-10-30T01:18:34.882Z,4.08
2017-10-30T01:21:04.858Z,3.98
2017-10-30T01:23:34.731Z,3.80
2017-10-30T01:26:04.628Z,3.60
2017-10-30T01:28:34.290Z,3.57
2017-10-30T01:31:04.110Z,3.85
2017-10-30T01:33:33.920Z,3.81
2017-10-30T01:36:03.779Z,3.97
2017-10-30T01:38:33.451Z,4.29
2017-10-30T01:41:03.324Z,4.40
2017-10-30T01:43:33.145Z,4.41
2017-10-30T01:46:03.000Z,4.67
2017-10-30T01:48:32.960Z,4.89
2017-10-30T01:51:02.943Z,5.09
2017-10-30T01:53:32.928Z,5.15
2017-10-30T01:56:02.414Z,5.14
2017-10-30T01:58:31.888Z,5.37
2017-10-30T02:01:01.933Z,5.32
2017-10-30T02:03:31.772Z,5.37
2017-10-30T02:06:01.682Z,5.41
2017-10-30T02:08:31.580Z,5.38
2017-10-30T02:11:02.371Z,5.32
2017-10-30T02:13:32.283Z,5.19
2017-10-30T02:16:02.153Z,5.35
2017-10-30T02:18:31.918Z,5.36
2017-10-30T02:21:01.544Z,5.28
2017-10-30T02:23:31.524Z,5.29
2017-10-30T02:26:01.074Z,5.35
2017-10-30T02:28:31.010Z,5.47
2017-10-30T02:31:00.541Z,5.54
2017-10-30T02:33:30.103Z,5.66
2017-10-30T02:36:00.024Z,5.67
2017-10-30T02:38:29.939Z,5.74
2017-10-30T02:40:59.812Z,5.74
2017-10-30T02:43:30.226Z,5.71
2017-10-30T02:45:59.803Z,5.67
2017-10-30T02:48:29.741Z,5.55
2017-10-30T02:50:59.302Z,5.42
2017-10-30T02:53:28.860Z,5.20
2017-10-30T02:55:58.445Z,4.98
2017-10-30T02:58:31.758Z,4.91
2017-10-30T03:01:01.333Z,4.82
2017-10-30T03:03:31.246Z,4.74
2017-10-30T03:06:01.162Z,4.69
2017-10-30T03:08:30.991Z,4.80
2017-10-30T03:11:00.625Z,4.81
2017-10-30T03:13:30.542Z,4.76
2017-10-30T03:16:01.057Z,4.61
2017-10-30T03:18:31.214Z,4.64
2017-10-30T03:21:00.825Z,4.76
2017-10-30T03:23:30.368Z,5.00
2017-10-30T03:26:01.678Z,4.96
2017-10-30T03:28:31.182Z,5.05
2017-10-30T03:31:01.463Z,5.09
2017-10-30T03:33:32.192Z,5.10
2017-10-30T03:36:02.946Z,5.26
2017-10-30T03:38:32.811Z,5.37
2017-10-30T03:41:02.262Z,5.49
2017-10-30T03:43:31.910Z,5.60
2017-10-30T03:46:01.534Z,5.63
2017-10-30T03:48:31.365Z,5.59
2017-10-30T03:51:01.596Z,5.52
2017-10-30T03:53:32.573Z,5.47
2017-10-30T03:56:03.222Z,5.45
2017-10-30T03:58:32.884Z,5.40
2017-10-30T04:01:03.071Z,5.45
2017-10-30T04:03:33.058Z,5.47
2017-10-30T04:06:03.111Z,5.51
2017-10-30T04:08:32.843Z,5.55
2017-10-30T04:11:02.997Z,5.56
2017-10-30T04:13:32.874Z,5.64
2017-10-30T04:16:02.742Z,5.69
2017-10-30T04:18:32.469Z,5.72
2017-10-30T04:21:02.382Z,5.71
2017-10-30T04:23:32.329Z,5.71
2017-10-30T04:26:03.220Z,5.73
2017-10-30T04:28:33.074Z,5.77
2017-10-30T04:31:02.956Z,5.75
2017-10-30T04:33:33.321Z,5.79
2017-10-30T04:36:03.244Z,5.76
2017-10-30T04:38:33.221Z,5.75
2017-10-30T04:41:03.149Z,5.78
2017-10-30T04:43:33.158Z,5.80
2017-10-30T04:46:02.975Z,5.71
2017-10-30T04:48:32.945Z,5.74
2017-10-30T04:51:03.019Z,5.75
2017-10-30T04:53:32.960Z,5.75
2017-10-30T04:56:03.356Z,5.78
2017-10-30T04:58:34.145Z,5.73
2017-10-30T05:01:04.020Z,5.85
2017-10-30T05:03:33.848Z,5.81
2017-10-30T05:06:03.721Z,5.90
2017-10-30T05:08:33.687Z,5.91
2017-10-30T05:11:03.539Z,5.90
2017-10-30T05:13:37.810Z,5.90
2017-10-30T05:16:07.777Z,5.87
2017-10-30T05:21:11.606Z,5.94
2017-10-30T05:23:41.545Z,6.00
2017-10-30T05:26:24.995Z,5.98
2017-10-30T05:29:31.384Z,5.96
2017-10-30T05:47:39.648Z,5.90
2017-10-30T06:02:18.945Z,6.03
2017-10-30T06:05:16.934Z,6.13
2017-10-30T06:09:39.591Z,6.12
2017-10-30T06:23:03.358Z,6.31
2017-10-30T06:25:33.126Z,6.28
2017-10-30T06:28:03.630Z,6.39
2017-10-30T06:30:33.430Z,6.41
2017-10-30T06:33:03.157Z,6.60
2017-10-30T06:35:32.888Z,6.64
2017-10-30T06:38:02.641Z,6.82
2017-10-30T06:40:32.373Z,6.94
2017-10-30T06:43:02.213Z,7.07
2017-10-30T06:45:32.021Z,7.11
2017-10-30T06:48:01.776Z,7.20
2017-10-30T06:50:31.527Z,7.11
2017-10-30T06:53:01.258Z,7.26
2017-10-30T06:55:31.035Z,7.25
2017-10-30T06:58:00.742Z,7.25
2017-10-30T07:00:30.484Z,7.23
2017-10-30T07:03:01.063Z,7.27
2017-10-30T07:05:30.850Z,7.33
2017-10-30T07:08:00.777Z,7.51
2017-10-30T07:10:30.801Z,7.73
2017-10-30T07:13:00.825Z,7.91
2017-10-30T07:15:30.469Z,7.92
2017-10-30T07:18:00.237Z,8.01
2017-10-30T07:20:29.970Z,8.06
2017-10-30T07:22:59.770Z,7.99
2017-10-30T07:25:29.484Z,8.17
2017-10-30T07:27:58.629Z,8.40
2017-10-30T07:30:28.357Z,8.55
2017-10-30T07:32:57.796Z,8.44
2017-10-30T07:35:27.540Z,8.43
2017-10-30T07:37:57.029Z,8.19
2017-10-30T07:40:26.808Z,8.17
2017-10-30T07:42:56.686Z,8.33
2017-10-30T07:45:26.484Z,8.69
2017-10-30T07:47:56.074Z,9.11
2017-10-30T07:50:25.669Z,9.15
2017-10-30T07:52:55.115Z,9.09
2017-10-30T07:55:24.845Z,8.95
2017-10-30T07:57:54.267Z,8.61
2017-10-30T08:00:23.680Z,8.68
2017-10-30T08:02:52.881Z,9.36
2017-10-30T08:05:22.617Z,9.77
2017-10-30T08:07:52.470Z,9.94
2017-10-30T08:10:22.220Z,9.46
2017-10-30T08:12:51.446Z,9.17
2017-10-30T08:15:20.853Z,8.87
2017-10-30T08:17:50.732Z,8.59
2017-10-30T08:20:20.170Z,8.67
2017-10-30T08:22:49.556Z,8.54
2017-10-30T08:25:19.474Z,8.32
2017-10-30T08:27:48.876Z,8.21
2017-10-30T08:30:18.645Z,8.34
2017-10-30T08:32:47.904Z,8.26
2017-10-30T08:35:17.654Z,7.81
2017-10-30T08:37:47.346Z,7.83
2017-10-30T08:40:16.771Z,7.53
2017-10-30T08:42:46.536Z,7.61
2017-10-30T08:45:16.007Z,7.73
2017-10-30T08:47:45.444Z,7.86
2017-10-30T08:50:14.866Z,7.80
2017-10-30T08:52:44.608Z,7.72
2017-10-30T08:55:13.820Z,7.78
2017-10-30T08:57:43.561Z,7.86
2017-10-30T09:00:12.973Z,7.97
2017-10-30T09:02:42.195Z,8.22
2017-10-30T09:05:11.640Z,8.24
2017-10-30T09:07:41.075Z,8.26
2017-10-30T09:10:10.839Z,8.18
2017-10-30T09:12:40.290Z,8.29
2017-10-30T09:15:09.949Z,8.30
2017-10-30T09:17:39.350Z,8.20
2017-10-30T09:20:09.117Z,8.68
2017-10-30T09:22:38.843Z,8.85
2017-10-30T09:25:08.236Z,9.38
2017-10-30T09:27:37.694Z,10.73
2017-10-30T09:30:07.084Z,11.03
2017-10-30T09:32:36.485Z,10.84
2017-10-30T09:35:05.890Z,10.81
2017-10-30T09:37:35.300Z,10.78
2017-10-30T09:40:04.549Z,10.69
2017-10-30T09:42:33.961Z,10.86
2017-10-30T09:45:03.404Z,10.29
2017-10-30T09:47:32.635Z,10.29
2017-10-30T09:50:02.038Z,10.23
2017-10-30T09:52:31.429Z,10.19
2017-10-30T09:55:00.836Z,10.23
2017-10-30T09:57:30.266Z,10.09
2017-10-30T09:59:59.815Z,10.02
2017-10-30T10:02:29.223Z,9.49
2017-10-30T10:04:58.810Z,9.24
2017-10-30T10:07:28.199Z,9.33
2017-10-30T10:09:58.004Z,9.64
2017-10-30T10:12:27.707Z,9.58
2017-10-30T10:14:57.118Z,9.37
2017-10-30T10:17:26.495Z,9.03
2017-10-30T10:19:55.922Z,8.75
2017-10-30T10:22:25.653Z,8.71
2017-10-30T10:24:55.035Z,9.03
2017-10-30T10:27:24.414Z,9.46
2017-10-30T10:29:53.804Z,9.87
2017-10-30T10:32:23.557Z,10.28
2017-10-30T10:34:52.938Z,10.13
2017-10-30T10:37:22.404Z,10.42
2017-10-30T10:39:51.809Z,10.88
2017-10-30T10:42:21.712Z,10.73
2017-10-30T10:44:51.102Z,11.44
2017-10-30T10:47:20.830Z,11.41
2017-10-30T10:49:50.833Z,11.23
2017-10-30T10:52:20.615Z,11.02
2017-10-30T10:54:50.355Z,11.31
2017-10-30T10:57:20.102Z,11.68
2017-10-30T10:59:49.848Z,14.10
2017-10-30T11:02:19.605Z,14.93
2017-10-30T11:04:49.368Z,15.97
2017-10-30T11:07:18.824Z,15.55
2017-10-30T11:09:48.455Z,15.58
2017-10-30T11:12:18.021Z,14.38
2017-10-30T11:14:47.757Z,13.80
2017-10-30T11:17:17.438Z,13.10
2017-10-30T11:19:47.203Z,12.39
2017-10-30T11:22:16.977Z,11.49
2017-10-30T11:24:46.746Z,9.88
2017-10-30T11:27:16.628Z,9.15
2017-10-30T11:29:46.346Z,8.59
2017-10-30T11:32:16.082Z,8.31
2017-10-30T11:34:45.907Z,8.22
2017-10-30T11:37:15.676Z,8.37
2017-10-30T11:39:45.728Z,10.57
2017-10-30T11:42:15.397Z,11.33
2017-10-30T11:44:45.192Z,10.66
2017-10-30T11:47:14.946Z,10.46
2017-10-30T11:49:44.793Z,10.36
2017-10-30T11:52:14.616Z,9.66
2017-10-30T11:54:45.388Z,9.38
2017-10-30T11:57:15.265Z,8.93
2017-10-30T11:59:46.710Z,8.77
2017-10-30T12:02:16.677Z,8.94
2017-10-30T12:04:47.162Z,9.78
2017-10-30T12:09:54.855Z,16.08
2017-10-30T12:12:25.575Z,16.07
2017-10-30T12:14:55.441Z,18.08
2017-10-30T12:17:25.090Z,18.61
2017-10-30T12:19:55.430Z,21.14
2017-10-30T12:22:24.959Z,18.07
2017-10-30T12:24:54.815Z,17.84
2017-10-30T12:27:24.843Z,15.84
2017-10-30T12:29:54.465Z,14.83
2017-10-30T12:32:24.084Z,13.55
2017-10-30T12:34:57.602Z,12.51
2017-10-30T12:37:27.462Z,11.15
2017-10-30T12:39:57.363Z,10.26
2017-10-30T12:42:27.350Z,9.77
2017-10-30T12:44:57.212Z,10.00
2017-10-30T12:47:27.131Z,9.70
2017-10-30T12:49:56.909Z,9.45
2017-10-30T12:52:26.846Z,9.11
2017-10-30T12:54:56.709Z,8.85
2017-10-30T12:57:26.618Z,8.91
2017-10-30T12:59:56.505Z,9.04
2017-10-30T13:02:26.011Z,9.87
2017-10-30T13:04:55.819Z,10.56
2017-10-30T13:07:25.295Z,10.33
2017-10-30T13:09:55.705Z,9.82
2017-10-30T13:12:25.467Z,9.33
2017-10-30T13:14:55.252Z,8.99
2017-10-30T13:17:25.071Z,9.02
2017-10-30T13:19:55.713Z,8.64
2017-10-30T13:22:25.451Z,8.63
2017-10-30T13:24:55.438Z,8.67
2017-10-30T13:27:25.285Z,8.39
2017-10-30T13:29:54.928Z,8.28
2017-10-30T13:32:25.710Z,8.15
2017-10-30T13:34:55.582Z,8.34
2017-10-30T13:37:25.335Z,8.37
2017-10-30T13:39:55.100Z,8.14
2017-10-30T13:42:24.856Z,8.04
2017-10-30T13:44:54.631Z,8.06
2017-10-30T13:47:24.424Z,7.91
2017-10-30T13:49:54.293Z,8.02
2017-10-30T13:52:24.098Z,8.13
2017-10-30T13:54:53.913Z,8.50
2017-10-30T13:57:23.762Z,9.50
2017-10-30T13:59:53.847Z,11.17
2017-10-30T14:02:23.631Z,14.42
2017-10-30T14:04:54.095Z,18.01
2017-10-30T14:07:23.577Z,20.67
2017-10-30T14:12:53.225Z,21.80
2017-10-30T14:15:23.701Z,20.91
2017-10-30T14:17:53.837Z,19.64
2017-10-30T14:20:23.420Z,19.40
2017-10-30T14:22:52.954Z,17.66
2017-10-30T14:25:22.524Z,15.23
2017-10-30T14:27:52.022Z,13.15
2017-10-30T14:30:21.509Z,11.37
2017-10-30T14:32:50.943Z,10.86
2017-10-30T14:35:20.749Z,10.36
2017-10-30T14:37:50.588Z,9.98
2017-10-30T14:40:19.976Z,9.63
2017-10-30T14:42:49.200Z,9.34
2017-10-30T14:45:18.633Z,9.06
2017-10-30T14:47:48.055Z,8.74
2017-10-30T14:50:17.469Z,8.63
2017-10-30T14:52:46.877Z,8.46
2017-10-30T14:55:16.377Z,8.35
2017-10-30T14:57:45.805Z,8.04
2017-10-30T15:00:19.862Z,7.81
2017-10-30T15:02:49.154Z,7.40
2017-10-30T15:05:18.533Z,7.08
2017-10-30T15:07:47.997Z,6.65
2017-10-30T15:10:17.568Z,6.28
2017-10-30T15:12:47.395Z,6.15
2017-10-30T15:15:16.802Z,6.01
2017-10-30T15:17:46.614Z,5.87
2017-10-30T15:20:16.374Z,5.75
2017-10-30T15:22:45.768Z,5.56
2017-10-30T15:25:15.497Z,5.37
2017-10-30T15:27:45.310Z,5.21
2017-10-30T15:30:15.065Z,5.10
2017-10-30T15:32:44.825Z,4.87
2017-10-30T15:35:18.654Z,4.67
2017-10-30T15:37:48.428Z,4.55
2017-10-30T15:40:18.726Z,4.32
2017-10-30T15:42:48.458Z,4.20
2017-10-30T15:45:18.239Z,4.22
2017-10-30T15:47:48.079Z,4.19
2017-10-30T15:50:17.768Z,4.17
2017-10-30T15:52:47.050Z,4.25
2017-10-30T15:55:16.887Z,4.22
2017-10-30T15:57:46.301Z,4.11
2017-10-30T16:00:16.084Z,4.24
2017-10-30T16:02:45.855Z,4.26
2017-10-30T16:05:15.622Z,4.10
2017-10-30T16:07:45.416Z,3.98
2017-10-30T16:10:15.419Z,3.84
2017-10-30T16:12:45.174Z,3.87
2017-10-30T16:15:15.154Z,3.74
2017-10-30T16:17:44.968Z,3.65
2017-10-30T16:20:14.882Z,3.65
2017-10-30T16:22:44.719Z,3.86
2017-10-30T16:25:14.517Z,3.96
2017-10-30T16:27:48.095Z,4.08
2017-10-30T16:30:17.970Z,4.09
2017-10-30T16:32:47.729Z,4.02
2017-10-30T16:35:17.261Z,4.04
2017-10-30T16:37:46.979Z,4.12
2017-10-30T16:40:16.944Z,3.98
2017-10-30T16:42:46.678Z,4.09
2017-10-30T16:45:17.095Z,4.20
2017-10-30T16:47:47.647Z,4.24
2017-10-30T16:50:17.504Z,4.34
2017-10-30T16:52:51.076Z,4.28
2017-10-30T16:55:20.825Z,4.33
2017-10-30T16:57:50.587Z,4.38
2017-10-30T17:00:20.087Z,4.39
2017-10-30T17:02:49.836Z,4.38
2017-10-30T17:05:19.572Z,4.34
2017-10-30T17:07:49.309Z,4.25
2017-10-30T17:10:19.053Z,4.10
2017-10-30T17:12:48.802Z,3.92
2017-10-30T17:15:18.620Z,3.61
2017-10-30T17:17:48.688Z,3.47
2017-10-30T17:20:18.447Z,3.23
2017-10-30T17:22:48.214Z,3.03
2017-10-30T17:25:18.045Z,2.86
2017-10-30T17:27:48.137Z,2.90
2017-10-30T17:30:17.966Z,2.83
2017-10-30T17:32:47.726Z,2.80
2017-10-30T17:35:17.449Z,2.92
2017-10-30T17:37:47.204Z,2.89
2017-10-30T17:40:16.976Z,2.77
2017-10-30T17:42:46.732Z,2.68
2017-10-30T17:45:16.968Z,2.76
2017-10-30T17:47:46.813Z,2.95
2017-10-30T17:50:16.565Z,3.03
2017-10-30T17:52:46.332Z,3.24
2017-10-30T17:55:16.184Z,3.28
2017-10-30T17:57:45.997Z,3.31
2017-10-30T18:00:15.738Z,3.49
2017-10-30T18:02:45.523Z,3.59
2017-10-30T18:05:15.248Z,3.61
2017-10-30T18:07:45.036Z,3.64
2017-10-30T18:10:14.873Z,3.64
2017-10-30T18:12:44.629Z,3.61
2017-10-30T18:15:14.395Z,3.54
2017-10-30T18:17:44.143Z,3.58
2017-10-30T18:24:14.869Z,3.34
2017-10-30T18:26:44.678Z,3.29
2017-10-30T18:29:14.428Z,3.34
2017-10-30T18:31:44.171Z,3.52
2017-10-30T18:34:14.030Z,3.58
2017-10-30T18:36:43.771Z,3.55
2017-10-30T18:39:13.506Z,3.46
2017-10-30T18:41:43.280Z,3.45
2017-10-30T18:44:13.024Z,3.36
2017-10-30T18:46:42.756Z,3.20
2017-10-30T18:49:12.527Z,3.07
2017-10-30T18:51:42.269Z,2.94
2017-10-30T18:54:11.866Z,2.86
2017-10-30T18:56:41.625Z,2.76
2017-10-30T18:59:12.275Z,2.82
2017-10-30T19:01:42.138Z,2.88
2017-10-30T19:04:12.047Z,2.81
2017-10-30T19:06:42.032Z,2.78
2017-10-30T19:09:11.892Z,2.71
2017-10-30T19:11:41.760Z,2.81
2017-10-30T19:14:11.866Z,2.96
2017-10-30T19:16:41.814Z,2.94
2017-10-30T19:19:11.721Z,2.93
2017-10-30T19:21:41.571Z,2.85
2017-10-30T19:24:11.319Z,2.77
2017-10-30T19:26:41.214Z,2.72
2017-10-30T19:29:11.445Z,2.74
2017-10-30T19:31:41.309Z,2.56
2017-10-30T19:34:11.182Z,2.38
2017-10-30T19:36:41.539Z,2.33
2017-10-30T19:39:11.666Z,2.22
2017-10-30T19:41:41.513Z,2.21
2017-10-30T19:44:11.377Z,2.12
2017-10-30T19:46:41.280Z,1.98
2017-10-30T19:49:11.113Z,1.85
2017-10-30T19:51:41.003Z,1.75
2017-10-30T19:54:10.926Z,1.69
2017-10-30T19:56:40.783Z,1.62
2017-10-30T19:59:10.559Z,1.54
2017-10-30T20:01:40.381Z,1.49
2017-10-30T20:04:10.070Z,1.48
2017-10-30T20:06:45.216Z,1.39
2017-10-30T20:09:21.017Z,1.33
2017-10-30T20:11:56.208Z,1.28
2017-10-30T20:14:25.967Z,1.24
2017-10-30T20:16:55.774Z,1.21
2017-10-30T20:19:25.552Z,1.15
2017-10-30T20:21:56.978Z,1.17
2017-10-30T20:24:26.895Z,1.34
2017-10-30T20:26:56.800Z,1.36
2017-10-30T20:29:26.756Z,1.44
2017-10-30T20:32:00.338Z,1.66
2017-10-30T20:34:30.223Z,1.76
2017-10-30T20:37:00.383Z,1.86
2017-10-30T20:39:30.469Z,1.71
2017-10-30T20:42:00.600Z,1.60
2017-10-30T20:44:33.184Z,1.56
2017-10-30T20:47:03.106Z,1.54
2017-10-30T20:49:33.523Z,1.39
2017-10-30T20:52:03.667Z,1.25
2017-10-30T20:54:33.612Z,1.09
2017-10-30T20:57:03.609Z,1.06
2017-10-30T20:59:33.585Z,1.11
2017-10-30T21:02:03.375Z,1.28
2017-10-30T21:04:33.158Z,1.40
2017-10-30T21:07:02.905Z,1.35
2017-10-30T21:09:32.472Z,1.32
2017-10-30T21:12:02.394Z,1.38
2017-10-30T21:14:32.356Z,1.29
2017-10-30T21:17:02.899Z,1.15
2017-10-30T21:19:33.806Z,1.00
2017-10-30T21:22:05.112Z,0.96
2017-10-30T21:24:34.653Z,0.99
2017-10-30T21:27:05.153Z,0.98
2017-10-30T21:29:36.146Z,1.02
2017-10-30T21:32:07.575Z,1.05
2017-10-30T21:34:38.202Z,1.09
2017-10-30T21:37:09.029Z,1.02
2017-10-30T21:39:38.951Z,1.01
2017-10-30T21:42:09.332Z,0.96
2017-10-30T21:44:39.547Z,0.96
2017-10-30T21:47:10.431Z,1.14
2017-10-30T21:49:40.106Z,1.25
2017-10-30T21:52:10.091Z,1.26
2017-10-30T21:54:40.198Z,1.09
2017-10-30T21:57:10.185Z,0.92
2017-10-30T21:59:40.108Z,0.88
2017-10-30T22:02:09.911Z,0.89
2017-10-30T22:04:40.385Z,0.81
2017-10-30T22:07:10.282Z,0.92
2017-10-30T22:09:43.916Z,0.84
2017-10-30T22:12:13.781Z,0.94
2017-10-30T22:14:43.741Z,1.01
2017-10-30T22:17:13.605Z,0.93
2017-10-30T22:19:43.378Z,0.80
2017-10-30T22:22:13.213Z,0.84
2017-10-30T22:24:42.999Z,0.91
2017-10-30T22:27:12.760Z,0.93
2017-10-30T22:29:42.493Z,1.00
2017-10-30T22:32:12.577Z,1.29
2017-10-30T22:34:42.958Z,1.41
2017-10-30T22:37:12.920Z,1.48
2017-10-30T22:39:42.783Z,1.60
2017-10-30T22:42:12.513Z,1.68
2017-10-30T22:44:43.053Z,1.60
2017-10-30T22:47:13.046Z,1.57
2017-10-30T22:49:43.366Z,1.57
2017-10-30T22:52:13.270Z,1.61
2017-10-30T22:54:43.283Z,1.77
2017-10-30T22:57:13.225Z,1.67
2017-10-30T22:59:44.121Z,1.60
2017-10-30T23:02:13.917Z,1.45
2017-10-30T23:04:43.834Z,1.34
2017-10-30T23:07:13.761Z,1.27
2017-10-30T23:09:43.627Z,1.28
2017-10-30T23:12:13.537Z,1.39
2017-10-30T23:14:43.491Z,1.53
2017-10-30T23:17:13.362Z,1.62
2017-10-30T23:19:43.733Z,1.62
2017-10-30T23:22:13.859Z,1.57
2017-10-30T23:24:43.710Z,1.85
2017-10-30T23:27:13.767Z,2.08
2017-10-30T23:29:43.561Z,2.00
2017-10-30T23:32:13.502Z,1.92
2017-10-30T23:34:43.428Z,1.98
2017-10-30T23:37:13.264Z,2.05
2017-10-30T23:39:43.217Z,2.11
2017-10-30T23:42:13.205Z,1.96
2017-10-30T23:44:43.007Z,1.80
2017-10-30T23:47:12.896Z,1.69
2017-10-30T23:49:42.792Z,1.77
2017-10-30T23:52:12.726Z,2.02
2017-10-30T23:54:42.703Z,2.04
2017-10-30T23:57:12.479Z,2.12
2017-10-30T23:59:42.298Z,2.20
